Grants Lick, Kentucky
Current Conditions -  °F | °C
As of 3:53 PM on Tuesday 21 Oct 2014 (Local Time) from KLUK Reporting Station
Overcast Overcast  
Wind Chill: 54°   Ceiling: 5000
Heat Index: 54°   Visibility: 10mi
Dew Point: 42°   Wind: 6mph
Humidity: 64%   Direction: 10°N
Pressure: 30.07"   Gusts: NA
Location:  38.9134°N, 84.39°W
Report Text: KLUK 211953Z 01005KT 10SM OVC050 12/06 A3007 RMK AO2 SLP183 T01220056
Loading
Personal Weather Stations






























Interactive Weather Map
Tropical Storm Tracking
New forecast layout! Learn more

10-Day Weather Forecast

Advertisements
Track Severe Weather on mobile